Time;durP1;ratioP1;P1;durP2;ratioP2;P2;SDS_P1;SDS_P2;PMS_P1;PMS_P2;Temp;Humidity;BMP_temperature;BMP_pressure;BME280_temperature;BME280_humidity;BME280_pressure;Samples;Min_cycle;Max_cycle;Signal;HPM_P1;HPM_P2
2021/01/17 00:00:17;;;;;;;55.30;16.52;;;;;;;-20.86;76.68;100855.80;1822562;78;21390;-32
2021/01/17 00:02:46;;;;;;;66.82;18.07;;;;;;;-20.93;76.71;100859.14;1822537;78;21010;-32
2021/01/17 00:05:15;;;;;;;51.92;16.00;;;;;;;-21.03;76.66;100854.77;1822590;78;20929;-32
2021/01/17 00:07:44;;;;;;;49.65;14.25;;;;;;;-21.12;76.71;100848.44;1822700;78;20925;-33
2021/01/17 00:10:15;;;;;;;48.23;15.65;;;;;;;-21.21;76.68;100843.72;1822595;78;21206;-30
2021/01/17 00:12:45;;;;;;;58.92;18.73;;;;;;;-21.30;76.78;100843.91;1822622;78;21377;-31
2021/01/17 00:15:14;;;;;;;61.53;16.75;;;;;;;-21.33;77.08;100834.96;1790395;78;21066;-32
2021/01/17 00:17:42;;;;;;;60.28;16.73;;;;;;;-21.31;77.29;100844.62;1822541;78;20905;-32
2021/01/17 00:20:12;;;;;;;55.17;15.93;;;;;;;-21.27;77.35;100847.95;1822654;78;21491;-32
2021/01/17 00:22:41;;;;;;;50.38;16.77;;;;;;;-21.26;77.27;100847.24;1822677;78;20968;-31
2021/01/17 00:25:13;;;;;;;55.17;15.45;;;;;;;-21.22;77.28;100842.30;1822450;78;21805;-31
2021/01/17 00:27:41;;;;;;;37.95;14.25;;;;;;;-21.26;77.08;100841.95;1822604;78;20885;-32
2021/01/17 00:30:10;;;;;;;46.88;14.38;;;;;;;-21.37;76.80;100833.72;1822481;78;21031;-31
2021/01/17 00:32:39;;;;;;;52.27;15.53;;;;;;;-21.49;76.79;100833.20;1822612;78;21653;-30
2021/01/17 00:35:08;;;;;;;49.95;15.60;;;;;;;-21.58;76.83;100829.33;1822622;78;20980;-31
2021/01/17 00:37:36;;;;;;;47.67;15.88;;;;;;;-21.63;76.96;100834.07;1822743;78;22242;-31
2021/01/17 00:40:06;;;;;;;43.30;13.55;;;;;;;-21.67;76.98;100831.11;1822444;78;20925;-30
2021/01/17 00:42:34;;;;;;;52.80;16.50;;;;;;;-21.73;76.95;100835.85;1822736;78;21535;-31
2021/01/17 00:45:04;;;;;;;58.63;16.15;;;;;;;-21.80;76.82;100834.96;1822559;78;20932;-32
2021/01/17 00:47:31;;;;;;;43.05;15.05;;;;;;;-21.89;76.76;100831.97;1822656;78;20924;-31
2021/01/17 00:49:59;;;;;;;48.87;15.63;;;;;;;-21.98;76.66;100828.09;1822776;78;22147;-32
2021/01/17 00:52:30;;;;;;;49.88;12.78;;;;;;;-22.07;76.59;100826.14;1822521;78;20956;-32
2021/01/17 00:54:58;;;;;;;38.40;13.90;;;;;;;-22.17;76.63;100826.64;1822638;78;20980;-31
2021/01/17 00:57:27;;;;;;;37.53;13.15;;;;;;;-22.29;76.47;100817.16;1822570;78;21018;-31
2021/01/17 00:59:55;;;;;;;50.28;12.25;;;;;;;-22.41;76.36;100815.36;1822576;78;20928;-31
2021/01/17 01:02:23;;;;;;;40.25;13.32;;;;;;;-22.52;76.32;100823.42;1822575;78;21211;-31
2021/01/17 01:04:51;;;;;;;43.50;12.55;;;;;;;-22.62;76.34;100831.27;1822533;78;20917;-32
2021/01/17 01:07:20;;;;;;;45.20;12.80;;;;;;;-22.74;76.29;100829.09;1822447;78;20944;-31
2021/01/17 01:09:48;;;;;;;42.58;14.03;;;;;;;-22.83;76.40;100824.33;1822502;78;20980;-32
2021/01/17 01:12:17;;;;;;;53.13;14.43;;;;;;;-22.87;76.57;100820.61;1822539;78;21040;-32
2021/01/17 01:14:45;;;;;;;48.85;13.72;;;;;;;-22.89;76.67;100822.38;1822537;78;21199;-31
2021/01/17 01:17:13;;;;;;;40.67;13.98;;;;;;;-22.93;76.71;100821.12;1822492;78;20932;-32
2021/01/17 01:19:41;;;;;;;46.08;13.70;;;;;;;-22.98;76.67;100822.15;1822523;78;20920;-32
2021/01/17 01:22:10;;;;;;;47.95;14.80;;;;;;;-23.02;76.64;100823.70;1822561;78;20956;-33
2021/01/17 01:24:37;;;;;;;41.77;13.98;;;;;;;-23.06;76.64;100822.81;1822533;78;21348;-30
2021/01/17 01:27:06;;;;;;;47.55;14.80;;;;;;;-22.97;77.19;100826.36;1822549;78;21522;-31
2021/01/17 01:29:34;;;;;;;52.27;17.90;;;;;;;-22.87;77.09;100829.20;1822472;78;20941;-32
2021/01/17 01:32:02;;;;;;;67.20;21.23;;;;;;;-22.82;77.01;100828.53;1822559;78;20929;-33
2021/01/17 01:34:30;;;;;;;83.17;21.87;;;;;;;-22.77;77.06;100832.78;1822619;78;21511;-31
2021/01/17 01:36:58;;;;;;;46.73;16.42;;;;;;;-22.74;77.09;100832.77;1822609;78;20960;-32
2021/01/17 01:39:26;;;;;;;40.80;15.15;;;;;;;-22.74;77.04;100831.91;1822469;78;21183;-32
2021/01/17 01:41:54;;;;;;;68.10;22.70;;;;;;;-22.81;76.87;100838.02;1822470;78;21370;-30
2021/01/17 01:44:22;;;;;;;80.12;28.57;;;;;;;-22.87;76.74;100836.56;1822504;78;20965;-30
2021/01/17 01:46:55;;;;;;;78.65;24.87;;;;;;;-22.91;76.88;100841.80;1822534;78;20981;-33
2021/01/17 01:49:20;;;;;;;57.10;17.70;;;;;;;-22.90;77.00;100840.25;1822147;78;21039;-32
2021/01/17 01:51:48;;;;;;;50.48;15.60;;;;;;;-22.93;76.93;100838.29;1791125;78;21569;-31
2021/01/17 01:54:16;;;;;;;48.80;16.70;;;;;;;-22.96;76.90;100840.38;1822435;78;21015;-30
2021/01/17 01:56:44;;;;;;;54.33;17.82;;;;;;;-22.99;76.94;100834.75;1822544;78;20940;-31
2021/01/17 01:59:11;;;;;;;62.58;20.17;;;;;;;-22.99;77.03;100840.87;1822457;78;20921;-32
2021/01/17 02:01:40;;;;;;;53.80;17.12;;;;;;;-22.99;77.07;100832.66;1822477;78;20996;-31
2021/01/17 02:04:11;;;;;;;47.83;14.47;;;;;;;-22.98;77.20;100831.96;1822566;78;21487;-31
2021/01/17 02:06:38;;;;;;;53.40;14.30;;;;;;;-22.98;77.07;100820.92;1822437;78;21043;-32
2021/01/17 02:09:18;;;;;;;44.35;12.80;;;;;;;-23.02;76.96;100826.16;1791109;78;20984;-31
2021/01/17 02:12:25;;;;;;;41.80;14.23;;;;;;;-22.99;77.18;100825.30;1822480;78;21211;-32
2021/01/17 02:15:05;;;;;;;47.90;12.93;;;;;;;-22.91;77.52;100817.27;1822472;78;20924;-31
2021/01/17 02:17:34;;;;;;;37.95;13.40;;;;;;;-22.81;77.60;100812.25;1822428;78;22181;-32
2021/01/17 02:20:07;;;;;;;39.98;12.40;;;;;;;-22.71;77.86;100816.32;1822408;78;21012;-32
2021/01/17 02:22:40;;;;;;;45.33;12.88;;;;;;;-22.61;77.92;100812.16;1822814;78;20940;-32
2021/01/17 02:25:09;;;;;;;44.73;13.35;;;;;;;-22.53;77.94;100812.70;1822429;78;20988;-32
2021/01/17 02:27:38;;;;;;;43.70;12.65;;;;;;;-22.45;77.95;100808.67;1822526;78;21019;-31
2021/01/17 02:30:10;;;;;;;33.67;11.83;;;;;;;-22.39;77.98;100807.30;1822425;78;21558;-31
2021/01/17 02:32:48;;;;;;;36.25;13.00;;;;;;;-22.32;78.08;100804.52;1822502;78;20945;-31
2021/01/17 02:35:16;;;;;;;39.88;12.55;;;;;;;-22.24;78.16;100809.44;1822474;78;20964;-31
2021/01/17 02:38:30;;;;;;;42.30;13.48;;;;;;;-22.13;78.19;100800.50;1791085;78;20920;-33
2021/01/17 02:41:19;;;;;;;41.42;13.53;;;;;;;-22.09;77.98;100801.41;1822545;78;21008;-32
2021/01/17 02:43:47;;;;;;;37.30;12.07;;;;;;;-22.07;77.97;100806.15;1822745;78;21479;-31
2021/01/17 02:46:15;;;;;;;44.70;12.63;;;;;;;-22.03;77.96;100805.80;1791201;78;20933;-31
2021/01/17 02:48:43;;;;;;;39.30;14.45;;;;;;;-22.01;77.92;100808.09;1822679;78;21047;-32
2021/01/17 02:51:12;;;;;;;35.70;12.30;;;;;;;-22.02;77.77;100805.09;1822801;78;20939;-32
2021/01/17 02:53:45;;;;;;;50.38;14.90;;;;;;;-22.05;77.63;100809.66;1822703;78;20941;-32
2021/01/17 02:56:18;;;;;;;38.58;13.22;;;;;;;-22.07;77.58;100800.02;1822753;78;21368;-32
2021/01/17 02:58:49;;;;;;;49.33;13.13;;;;;;;-22.12;77.47;100804.71;1822565;78;21436;-32
2021/01/17 03:01:21;;;;;;;53.15;16.93;;;;;;;-22.17;77.27;100803.30;1791653;78;21000;-33
2021/01/17 03:03:49;;;;;;;76.70;22.80;;;;;;;-22.27;76.97;100802.58;1822543;78;20928;-31
2021/01/17 03:06:18;;;;;;;56.08;17.10;;;;;;;-22.40;76.76;100799.03;1790127;78;21027;-32
2021/01/17 03:08:46;;;;;;;74.58;23.62;;;;;;;-22.52;76.61;100793.59;1822694;78;21708;-35
2021/01/17 03:11:16;;;;;;;53.90;16.32;;;;;;;-22.64;76.43;100793.39;1822605;78;21063;-31
2021/01/17 03:13:44;;;;;;;65.47;16.30;;;;;;;-22.79;76.21;100780.19;1791537;78;20988;-32
2021/01/17 03:16:12;;;;;;;42.15;15.95;;;;;;;-22.91;76.12;100789.05;1822582;78;20972;-32
2021/01/17 03:18:40;;;;;;;59.88;16.05;;;;;;;-23.02;76.05;100795.50;1822641;78;20928;-32
2021/01/17 03:21:08;;;;;;;56.02;15.93;;;;;;;-23.15;75.83;100791.92;1822632;78;22830;-31
2021/01/17 03:23:36;;;;;;;52.75;16.10;;;;;;;-23.29;75.57;100787.48;1822546;78;21357;-33
2021/01/17 03:26:04;;;;;;;49.03;15.00;;;;;;;-23.42;75.35;100791.62;1822743;78;21416;-32
2021/01/17 03:28:31;;;;;;;47.38;15.15;;;;;;;-23.55;75.36;100792.92;1822594;78;20909;-33
2021/01/17 03:30:59;;;;;;;56.70;15.13;;;;;;;-23.58;75.63;100799.55;1822548;78;20944;-34
2021/01/17 03:33:27;;;;;;;54.75;15.63;;;;;;;-23.59;75.60;100808.81;1822686;78;21189;-31
2021/01/17 03:35:56;;;;;;;42.83;14.65;;;;;;;-23.68;75.38;100798.23;1822599;78;21064;-31
2021/01/17 03:38:24;;;;;;;53.87;15.18;;;;;;;-23.77;75.31;100788.19;1822562;78;20964;-32
2021/01/17 03:40:52;;;;;;;55.17;16.05;;;;;;;-23.85;75.20;100798.30;1822610;78;20980;-37
2021/01/17 03:43:19;;;;;;;58.25;14.00;;;;;;;-23.94;75.12;100799.59;1822624;78;20964;-32
2021/01/17 03:45:48;;;;;;;44.88;13.25;;;;;;;-23.97;75.22;100801.67;1822691;78;21930;-31
2021/01/17 03:48:16;;;;;;;44.48;14.55;;;;;;;-24.03;75.18;100799.04;1822509;78;20941;-30
2021/01/17 03:50:43;;;;;;;54.95;14.50;;;;;;;-24.09;75.11;100797.39;1822438;78;21008;-31
2021/01/17 03:53:11;;;;;;;47.88;14.53;;;;;;;-24.13;75.25;100808.36;1822575;78;21107;-31
2021/01/17 03:55:39;;;;;;;40.38;13.43;;;;;;;-24.15;75.33;100807.30;1822680;78;20968;-31
2021/01/17 03:58:08;;;;;;;46.75;12.53;;;;;;;-24.15;75.39;100809.75;1822602;78;21162;-34
2021/01/17 04:00:35;;;;;;;56.45;14.45;;;;;;;-24.20;75.32;100809.53;1822598;78;20944;-32
2021/01/17 04:03:04;;;;;;;46.10;14.25;;;;;;;-24.21;75.44;100812.66;1822621;78;20952;-31
2021/01/17 04:05:32;;;;;;;55.17;15.35;;;;;;;-24.22;75.41;100808.12;1822577;78;21075;-32
2021/01/17 04:08:00;;;;;;;52.38;15.75;;;;;;;-24.19;75.63;100808.84;1822573;78;21122;-32
2021/01/17 04:10:30;;;;;;;53.08;14.05;;;;;;;-24.11;75.86;100811.91;1822669;78;21206;-30
2021/01/17 04:12:57;;;;;;;41.40;14.45;;;;;;;-24.06;75.77;100810.02;1822538;78;20980;-29
2021/01/17 04:15:25;;;;;;;43.23;13.18;;;;;;;-24.05;75.68;100806.55;1822558;78;20912;-30
2021/01/17 04:17:53;;;;;;;46.95;13.93;;;;;;;-24.05;75.68;100815.11;1822628;78;20917;-34
2021/01/17 04:20:22;;;;;;;43.92;13.72;;;;;;;-24.06;75.62;100812.13;1822538;78;20968;-31
2021/01/17 04:22:50;;;;;;;58.00;14.38;;;;;;;-24.09;75.55;100818.20;1822616;78;21353;-31
2021/01/17 04:25:18;;;;;;;51.45;13.72;;;;;;;-24.13;75.53;100812.04;1822451;78;20980;-32
2021/01/17 04:27:45;;;;;;;55.15;16.90;;;;;;;-24.16;75.40;100816.56;1791227;78;20980;-32
2021/01/17 04:30:17;;;;;;;51.63;15.53;;;;;;;-24.16;75.56;100813.78;1822499;78;20908;-31
2021/01/17 04:32:45;;;;;;;43.35;13.62;;;;;;;-24.10;75.82;100799.31;1822509;78;20920;-31
2021/01/17 04:35:14;;;;;;;47.53;16.05;;;;;;;-23.95;76.29;100803.96;1822642;78;22087;-30
2021/01/17 04:37:42;;;;;;;68.50;17.27;;;;;;;-23.84;76.24;100807.41;1822554;78;21112;-32
2021/01/17 04:40:10;;;;;;;53.78;17.00;;;;;;;-23.77;76.10;100802.55;1822540;78;20925;-31
2021/01/17 04:42:41;;;;;;;47.15;15.48;;;;;;;-23.74;75.98;100800.80;1822652;78;21059;-30
2021/01/17 04:45:11;;;;;;;60.00;16.57;;;;;;;-23.74;75.78;100801.70;1822582;78;20987;-30
2021/01/17 04:47:39;;;;;;;49.03;18.15;;;;;;;-23.79;75.60;100803.05;1822671;78;21203;-31
2021/01/17 04:50:09;;;;;;;55.92;16.37;;;;;;;-23.82;75.60;100808.47;1822423;78;21020;-32
2021/01/17 04:52:44;;;;;;;45.65;15.08;;;;;;;-23.80;75.74;100801.29;1822435;78;20996;-33
2021/01/17 04:55:13;;;;;;;60.35;16.95;;;;;;;-23.85;75.46;100794.62;1822452;78;21059;-30
2021/01/17 04:58:04;;;;;;;47.23;18.02;;;;;;;-23.90;75.37;100791.59;1822610;78;21004;-31
2021/01/17 05:00:33;;;;;;;58.05;17.07;;;;;;;-23.88;75.37;100791.77;1822500;78;21365;-32
2021/01/17 05:03:39;;;;;;;58.30;15.40;;;;;;;-23.92;75.26;100783.52;1822543;78;21169;-31
2021/01/17 05:06:29;;;;;;;60.88;16.25;;;;;;;-23.97;75.18;100786.97;1820276;78;21043;-32
2021/01/17 05:09:05;;;;;;;42.08;14.35;;;;;;;-23.99;75.22;100783.13;1822586;78;21530;-33
2021/01/17 05:11:41;;;;;;;38.30;12.88;;;;;;;-24.02;75.16;100777.53;1822515;78;20917;-31
2021/01/17 05:14:14;;;;;;;;;;;;;;;-24.01;75.32;100779.61;1825242;78;21358;-32
2021/01/17 05:16:45;;;;;;;40.00;13.10;;;;;;;-24.00;75.37;100786.23;1822468;78;20097;-31
2021/01/17 05:19:16;;;;;;;36.73;11.68;;;;;;;-24.01;75.44;100786.63;1822577;78;21415;-32
2021/01/17 05:21:48;;;;;;;37.78;12.20;;;;;;;-24.01;75.59;100786.63;1822220;78;20992;-31
2021/01/17 05:24:19;;;;;;;41.70;14.05;;;;;;;-23.93;75.84;100790.33;1822131;78;20992;-30
2021/01/17 05:26:58;;;;;;;33.53;11.80;;;;;;;-23.82;76.01;100787.97;1822623;78;21154;-30
2021/01/17 05:29:30;;;;;;;38.88;13.38;;;;;;;-23.73;75.93;100797.33;1822608;78;21420;-30
2021/01/17 05:32:03;;;;;;;41.00;12.37;;;;;;;-23.67;75.92;100805.78;1822488;78;21000;-32
2021/01/17 05:34:32;;;;;;;39.43;14.10;;;;;;;-23.68;75.62;100804.03;1822744;78;20917;-32
2021/01/17 05:37:07;;;;;;;40.45;13.55;;;;;;;-23.71;75.40;100810.65;1822634;78;21153;-31
2021/01/17 05:40:01;;;;;;;46.95;13.58;;;;;;;-23.76;75.27;100809.21;1822730;78;21243;-30
2021/01/17 05:42:36;;;;;;;43.75;13.20;;;;;;;-23.78;75.26;100818.28;1822423;78;21000;-32
2021/01/17 05:45:22;;;;;;;46.28;12.18;;;;;;;-23.79;75.31;100828.44;1822312;78;20964;-29
2021/01/17 05:48:02;;;;;;;37.98;11.90;;;;;;;-23.78;75.37;100830.20;1822600;78;20960;-31
2021/01/17 05:50:32;;;;;;;39.55;12.53;;;;;;;-23.79;75.26;100832.11;1822435;78;20967;-32
2021/01/17 05:53:06;;;;;;;50.67;14.40;;;;;;;-23.80;75.18;100829.46;1795681;78;21370;-31
2021/01/17 05:55:40;;;;;;;44.35;14.95;;;;;;;-23.83;74.99;100831.20;1753541;80;27224;-31
2021/01/17 05:58:30;;;;;;;42.88;14.07;;;;;;;-23.89;74.68;100837.45;1774055;81;20990;-31
2021/01/17 06:01:03;;;;;;;44.60;16.02;;;;;;;-23.95;74.50;100844.05;1774045;81;21156;-31
2021/01/17 06:03:33;;;;;;;48.30;13.75;;;;;;;-24.02;74.55;100846.10;1772321;80;21607;-35
2021/01/17 06:06:06;;;;;;;43.80;12.28;;;;;;;-24.03;74.49;100851.69;1774204;80;21193;-31
2021/01/17 06:08:34;;;;;;;67.53;16.20;;;;;;;-24.06;74.40;100838.17;1774145;80;20926;-32
2021/01/17 06:11:10;;;;;;;51.88;16.07;;;;;;;-24.11;74.27;100838.85;1774148;80;21397;-31
2021/01/17 06:13:40;;;;;;;51.70;16.52;;;;;;;-24.13;74.33;100837.75;1774361;80;20934;-32
2021/01/17 06:16:35;;;;;;;61.77;16.70;;;;;;;-24.11;74.49;100840.41;1774247;80;20981;-30
2021/01/17 06:19:08;;;;;;;68.52;20.05;;;;;;;-24.06;74.56;100836.63;1774264;80;21196;-31
2021/01/17 06:21:37;;;;;;;69.70;16.80;;;;;;;-24.00;74.64;100836.12;1774262;80;20950;-31
2021/01/17 06:24:07;;;;;;;54.15;16.73;;;;;;;-23.91;74.79;100835.48;1774206;80;20918;-30
2021/01/17 06:26:39;;;;;;;55.83;16.10;;;;;;;-23.78;74.89;100841.22;1774389;80;21564;-32
2021/01/17 06:29:10;;;;;;;48.35;16.20;;;;;;;-23.67;75.02;100844.99;1774260;80;20990;-31
2021/01/17 06:31:38;;;;;;;63.40;18.30;;;;;;;-23.55;75.14;100849.30;1774246;80;21371;-31
2021/01/17 06:34:12;;;;;;;73.17;20.20;;;;;;;-23.41;75.31;100843.63;1774210;80;21065;-31
2021/01/17 06:36:47;;;;;;;78.35;19.75;;;;;;;-23.27;75.44;100852.66;1774365;80;20886;-30
2021/01/17 06:39:26;;;;;;;66.45;18.35;;;;;;;-23.15;75.55;100843.06;1774303;79;21100;-30
2021/01/17 06:41:57;;;;;;;75.80;24.18;;;;;;;-22.98;75.67;100849.13;1774348;80;21552;-31
2021/01/17 06:44:31;;;;;;;83.30;24.77;;;;;;;-22.81;75.86;100842.56;1774147;80;21380;-32
2021/01/17 06:47:00;;;;;;;75.17;23.32;;;;;;;-22.60;76.01;100845.49;1774196;80;21029;-33
2021/01/17 06:49:33;;;;;;;69.70;23.52;;;;;;;-22.41;76.17;100842.38;1774326;80;20982;-31
2021/01/17 06:52:04;;;;;;;67.17;21.20;;;;;;;-22.20;76.39;100845.94;1778631;79;21069;-30
2021/01/17 06:54:39;;;;;;;65.87;19.77;;;;;;;-22.02;76.48;100848.44;1803051;79;21081;-31
2021/01/17 06:57:08;;;;;;;62.70;20.32;;;;;;;-21.84;76.53;100855.87;1803041;79;21359;-31
2021/01/17 06:59:42;;;;;;;72.27;21.95;;;;;;;-21.69;76.63;100849.02;1802793;79;20883;-33
2021/01/17 07:02:18;;;;;;;73.92;19.87;;;;;;;-21.53;76.72;100855.68;1802918;79;20939;-32
2021/01/17 07:05:10;;;;;;;52.78;16.35;;;;;;;-21.32;76.81;100863.77;1802916;79;21009;-32
2021/01/17 07:08:07;;;;;;;59.70;17.12;;;;;;;-21.16;76.90;100860.25;1802973;79;20981;-33
2021/01/17 07:10:42;;;;;;;56.02;17.67;;;;;;;-20.99;77.01;100862.16;1801764;79;21380;-33
2021/01/17 07:13:12;;;;;;;59.50;17.45;;;;;;;-20.83;77.17;100867.22;1802955;79;20982;-32
2021/01/17 07:15:42;;;;;;;68.47;19.15;;;;;;;-20.70;77.31;100859.25;1802885;79;20894;-32
2021/01/17 07:18:15;;;;;;;48.13;16.00;;;;;;;-20.55;77.39;100862.89;1802916;79;21001;-32
2021/01/17 07:20:47;;;;;;;56.05;15.10;;;;;;;-20.39;77.50;100856.84;1802814;79;20887;-32
2021/01/17 07:23:17;;;;;;;52.13;15.35;;;;;;;-20.25;77.57;100854.33;1802882;79;21195;-32
2021/01/17 07:25:47;;;;;;;38.67;13.32;;;;;;;-20.13;77.65;100846.17;1802832;79;21397;-33
2021/01/17 07:28:18;;;;;;;45.30;14.43;;;;;;;-19.98;77.68;100844.50;1803037;79;21398;-33
2021/01/17 07:30:53;;;;;;;55.50;13.88;;;;;;;-19.87;77.69;100849.34;1802823;79;20899;-32
2021/01/17 07:33:26;;;;;;;37.58;14.00;;;;;;;-19.75;77.73;100853.49;1783422;79;20970;-32
2021/01/17 07:35:58;;;;;;;46.88;14.05;;;;;;;-19.58;77.76;100855.65;1802906;79;21340;-32
2021/01/17 07:38:34;;;;;;;41.48;13.08;;;;;;;-19.45;77.81;100859.97;1802330;79;20887;-31
2021/01/17 07:41:09;;;;;;;37.65;14.25;;;;;;;-19.34;77.75;100847.89;1802899;79;20914;-32
2021/01/17 07:43:43;;;;;;;48.20;14.65;;;;;;;-19.20;77.82;100851.83;1802839;79;21111;-33
2021/01/17 07:46:15;;;;;;;36.50;12.73;;;;;;;-19.05;77.82;100845.20;1803004;79;20902;-32
2021/01/17 07:48:47;;;;;;;37.10;11.83;;;;;;;-18.88;77.75;100847.79;1802957;79;21379;-33
2021/01/17 07:51:16;;;;;;;41.73;13.45;;;;;;;-18.82;77.61;100849.66;1802799;79;20942;-30
2021/01/17 07:53:58;;;;;;;35.68;12.13;;;;;;;-18.71;77.58;100849.92;1794136;79;20895;-31
2021/01/17 07:56:34;;;;;;;44.03;12.70;;;;;;;-18.59;77.58;100847.48;1790488;80;21042;-33
2021/01/17 07:59:04;;;;;;;32.03;10.82;;;;;;;-18.46;77.59;100847.16;1790613;80;21394;-31
2021/01/17 08:01:39;;;;;;;44.00;16.20;;;;;;;-18.33;77.58;100849.30;1790576;79;21415;-32
2021/01/17 08:04:16;;;;;;;36.38;12.88;;;;;;;-18.25;77.58;100852.22;1790545;80;21061;-30
2021/01/17 08:06:48;;;;;;;30.40;11.60;;;;;;;-18.10;77.62;100848.30;1790543;80;20930;-31
2021/01/17 08:09:19;;;;;;;26.30;8.95;;;;;;;-17.98;77.22;100855.72;1790759;80;20907;-31
2021/01/17 08:11:56;;;;;;;31.80;11.12;;;;;;;-17.87;77.12;100860.86;1787004;80;21002;-31
2021/01/17 08:14:36;;;;;;;36.75;11.38;;;;;;;-17.80;77.23;100858.31;1790506;80;21219;-32
2021/01/17 08:18:40;;;;;;;36.42;14.07;;;;;;;-17.51;76.83;100850.45;1816156;79;22523;-35
2021/01/17 08:21:25;;;;;;;33.78;14.38;;;;;;;-17.55;75.86;100853.33;1789211;80;20923;-31
2021/01/17 08:24:17;;;;;;;27.20;10.50;;;;;;;-17.45;75.99;100854.77;1789397;80;21218;-32
2021/01/17 08:27:03;;;;;;;30.60;10.68;;;;;;;-17.27;76.09;100852.38;1789165;80;20939;-31
2021/01/17 08:29:31;;;;;;;32.23;11.48;;;;;;;-17.15;76.05;100852.34;1789247;80;21493;-29
2021/01/17 08:32:00;;;;;;;26.93;10.68;;;;;;;-16.99;76.02;100857.19;1734236;80;21029;-32
2021/01/17 08:34:28;;;;;;;51.23;12.13;;;;;;;-16.86;75.57;100850.94;1759127;80;20990;-32
2021/01/17 08:36:56;;;;;;;32.83;11.78;;;;;;;-16.76;75.40;100846.13;1789228;80;21269;-32
2021/01/17 08:39:47;;;;;;;33.78;13.45;;;;;;;-16.68;75.67;100838.20;1789154;80;20947;-31
2021/01/17 08:42:38;;;;;;;57.48;13.83;;;;;;;-16.50;75.83;100839.09;1789211;80;20919;-30
2021/01/17 08:45:38;;;;;;;9.65;5.20;;;;;;;-16.32;75.70;100832.17;1758755;80;21018;-30
2021/01/17 08:48:21;;;;;;;21.52;7.37;;;;;;;-16.20;73.05;100832.47;1789169;80;20927;-31
2021/01/17 08:50:51;;;;;;;26.60;8.83;;;;;;;-16.36;72.37;100821.81;1789258;80;21381;-31
2021/01/17 08:53:31;;;;;;;15.23;5.42;;;;;;;-16.33;72.51;100815.90;1789135;80;20931;-31
2021/01/17 08:56:14;;;;;;;29.63;8.65;;;;;;;-16.27;71.06;100823.05;1789330;80;21022;-32
2021/01/17 08:58:44;;;;;;;19.37;6.28;;;;;;;-16.30;71.39;100824.86;1789113;80;20998;-32
2021/01/17 09:01:13;;;;;;;25.75;8.03;;;;;;;-16.19;70.46;100831.73;1789180;80;21018;-35
2021/01/17 09:03:47;;;;;;;23.00;7.03;;;;;;;-16.14;70.00;100825.98;1789248;80;21637;-32
2021/01/17 09:06:25;;;;;;;24.15;8.70;;;;;;;-16.01;69.99;100819.32;1789071;80;20931;-33
2021/01/17 09:09:00;;;;;;;21.40;6.42;;;;;;;-15.91;68.38;100813.23;1789270;80;20998;-32
2021/01/17 09:11:40;;;;;;;25.82;7.50;;;;;;;-15.87;68.69;100809.75;1789310;80;20994;-30
2021/01/17 09:14:19;;;;;;;23.38;6.25;;;;;;;-15.79;68.74;100817.53;1789184;80;21010;-30
2021/01/17 09:17:01;;;;;;;18.73;6.95;;;;;;;-15.60;68.24;100818.51;1787892;80;22240;-30
2021/01/17 09:19:35;;;;;;;12.70;4.85;;;;;;;-15.55;67.48;100818.05;1784107;80;21542;-33
2021/01/17 09:22:04;;;;;;;21.70;7.53;;;;;;;-15.45;67.15;100814.45;1784225;80;21018;-31
2021/01/17 09:24:34;;;;;;;22.32;9.03;;;;;;;-15.29;67.08;100810.86;1784177;80;21093;-32
2021/01/17 09:27:06;;;;;;;24.18;8.25;;;;;;;-15.12;67.09;100812.02;1784188;80;21529;-31
2021/01/17 09:29:39;;;;;;;68.22;21.95;;;;;;;-14.83;66.80;100811.66;1783738;80;21446;-31
2021/01/17 09:32:16;;;;;;;36.40;15.23;;;;;;;-14.66;65.91;100823.91;1783552;80;20971;-31
2021/01/17 09:34:46;;;;;;;37.10;14.00;;;;;;;-14.51;65.68;100826.02;1783492;80;20951;-32
2021/01/17 09:37:16;;;;;;;20.45;7.37;;;;;;;-14.46;64.69;100824.45;1783559;80;20924;-32
2021/01/17 09:39:48;;;;;;;19.10;7.42;;;;;;;-14.36;63.84;100831.45;1783670;80;21010;-30
2021/01/17 09:42:18;;;;;;;15.55;6.87;;;;;;;-14.26;62.70;100829.41;1783628;80;21299;-31
2021/01/17 09:45:01;;;;;;;18.75;6.58;;;;;;;-14.14;62.05;100834.22;1783659;80;20939;-31
2021/01/17 09:47:29;;;;;;;16.62;7.78;;;;;;;-14.04;60.43;100838.34;1783695;80;20975;-32
2021/01/17 09:50:09;;;;;;;21.12;7.58;;;;;;;-14.20;60.56;100833.30;1783585;80;20943;-31
2021/01/17 09:52:40;;;;;;;16.25;6.83;;;;;;;-14.01;61.31;100818.72;1783646;80;21029;-31
2021/01/17 09:55:10;;;;;;;18.77;7.70;;;;;;;-13.79;60.26;100826.75;1783502;80;21444;-31
2021/01/17 09:57:39;;;;;;;20.05;8.58;;;;;;;-13.69;60.24;100819.34;1783499;80;20959;-32
2021/01/17 10:00:20;;;;;;;22.20;9.45;;;;;;;-13.52;59.49;100817.38;1783561;80;20919;-32
2021/01/17 10:02:47;;;;;;;20.55;8.50;;;;;;;-13.47;59.50;100820.77;1783556;80;21042;-31
2021/01/17 10:05:30;;;;;;;27.60;8.75;;;;;;;-13.48;58.26;100819.02;1783625;80;20935;-32
2021/01/17 10:08:02;;;;;;;24.02;8.48;;;;;;;-13.55;57.14;100807.16;1783100;80;23007;-32
2021/01/17 10:10:30;;;;;;;16.82;7.10;;;;;;;-13.58;57.83;100804.06;1783533;80;21005;-30
2021/01/17 10:12:58;;;;;;;20.50;7.03;;;;;;;-13.52;57.54;100803.32;1783650;80;21482;-31
2021/01/17 10:15:26;;;;;;;18.25;7.83;;;;;;;-13.61;56.48;100808.40;1783583;80;20995;-31
2021/01/17 10:17:55;;;;;;;13.48;5.78;;;;;;;-13.97;57.56;100807.04;1780191;80;20916;-32
2021/01/17 10:20:30;;;;;;;17.65;7.80;;;;;;;-14.06;58.18;100811.21;1774975;80;21346;-32
2021/01/17 10:23:09;;;;;;;12.78;5.72;;;;;;;-14.09;58.34;100817.17;1753402;80;21011;-31
2021/01/17 10:25:37;;;;;;;17.23;7.03;;;;;;;-14.02;58.21;100811.61;1775056;80;20984;-31
2021/01/17 10:28:07;;;;;;;13.83;6.30;;;;;;;-14.03;58.38;100805.25;1775086;80;21471;-31
2021/01/17 10:30:40;;;;;;;24.32;8.10;;;;;;;-13.86;58.85;100804.22;1775016;80;21043;-33
2021/01/17 10:33:12;;;;;;;21.80;8.23;;;;;;;-13.66;58.98;100809.64;1775024;80;21425;-30
2021/01/17 10:35:46;;;;;;;15.72;7.58;;;;;;;-13.45;58.16;100804.33;1753028;80;21058;-32
2021/01/17 10:38:15;;;;;;;17.30;6.65;;;;;;;-13.32;57.43;100795.36;1775099;80;20928;-32
2021/01/17 10:40:43;;;;;;;14.23;6.83;;;;;;;-13.31;57.16;100795.47;1774999;80;21041;-31
2021/01/17 10:43:32;;;;;;;14.28;7.33;;;;;;;-13.16;56.38;100789.63;1753789;80;21469;-32
2021/01/17 10:46:15;;;;;;;16.25;6.80;;;;;;;-13.13;56.26;100786.53;1775023;80;21381;-32
2021/01/17 10:48:54;;;;;;;16.27;6.50;;;;;;;-13.09;56.58;100790.16;1775042;80;21018;-32
2021/01/17 10:51:26;;;;;;;19.32;7.22;;;;;;;-13.39;56.53;100790.23;1774963;80;21011;-33
2021/01/17 10:53:55;;;;;;;19.57;6.90;;;;;;;-13.43;57.12;100781.66;1774955;80;21293;-31
2021/01/17 10:56:23;;;;;;;18.77;5.90;;;;;;;-13.36;56.87;100774.29;1752878;80;20955;-33
2021/01/17 10:58:51;;;;;;;21.87;8.53;;;;;;;-13.43;56.76;100775.81;1775023;80;22216;-32
2021/01/17 11:01:29;;;;;;;17.32;5.78;;;;;;;-13.52;57.02;100785.00;1774892;80;21015;-31
2021/01/17 11:03:59;;;;;;;17.92;7.47;;;;;;;-13.55;57.34;100783.50;1775009;80;20940;-32
2021/01/17 11:06:29;;;;;;;17.45;6.08;;;;;;;-13.61;57.29;100775.16;1775127;80;21403;-32
2021/01/17 11:08:58;;;;;;;23.30;7.20;;;;;;;-13.77;56.86;100771.38;1775133;80;21566;-31
2021/01/17 11:11:29;;;;;;;14.83;6.67;;;;;;;-14.11;57.90;100769.77;1775063;80;21214;-32
2021/01/17 11:14:03;;;;;;;17.98;6.80;;;;;;;-14.10;58.48;100768.14;1774899;80;21006;-31
2021/01/17 11:16:41;;;;;;;17.40;6.30;;;;;;;-14.12;57.95;100765.89;1775134;80;20968;-32
2021/01/17 11:19:11;;;;;;;19.42;6.25;;;;;;;-14.30;58.50;100767.30;1774754;80;21042;-33
2021/01/17 11:21:43;;;;;;;12.37;5.97;;;;;;;-14.23;58.59;100768.35;1775042;80;20980;-31
2021/01/17 11:24:13;;;;;;;12.43;5.53;;;;;;;-14.21;59.11;100768.11;1774950;80;21470;-31
2021/01/17 11:26:42;;;;;;;19.80;8.23;;;;;;;-14.04;59.17;100767.05;1774911;80;20983;-31
2021/01/17 11:29:17;;;;;;;20.77;8.45;;;;;;;-13.86;59.41;100772.71;1775018;80;21046;-32